sensor_id;sensor_type;location;lat;lon;timestamp;temperature;humidity
23231;DHT22;11784;49.818;8.632;2023-08-21T00:00:34;26.10;91.70
23231;DHT22;11784;49.818;8.632;2023-08-21T00:03:00;26.10;91.80
23231;DHT22;11784;49.818;8.632;2023-08-21T00:05:25;26.10;91.90
23231;DHT22;11784;49.818;8.632;2023-08-21T00:07:51;26.10;92.00
23231;DHT22;11784;49.818;8.632;2023-08-21T00:10:17;26.10;91.80
23231;DHT22;11784;49.818;8.632;2023-08-21T00:12:42;26.00;92.00
23231;DHT22;11784;49.818;8.632;2023-08-21T00:15:08;26.10;92.10
23231;DHT22;11784;49.818;8.632;2023-08-21T00:17:35;26.10;92.10
23231;DHT22;11784;49.818;8.632;2023-08-21T00:20:00;26.00;92.00
23231;DHT22;11784;49.818;8.632;2023-08-21T00:22:27;26.00;92.00
23231;DHT22;11784;49.818;8.632;2023-08-21T00:24:52;26.00;92.10
23231;DHT22;11784;49.818;8.632;2023-08-21T00:27:18;26.00;92.10
23231;DHT22;11784;49.818;8.632;2023-08-21T00:29:43;26.00;92.10
23231;DHT22;11784;49.818;8.632;2023-08-21T00:32:09;25.90;92.10
23231;DHT22;11784;49.818;8.632;2023-08-21T00:34:34;25.90;92.10
23231;DHT22;11784;49.818;8.632;2023-08-21T00:37:00;25.90;92.20
23231;DHT22;11784;49.818;8.632;2023-08-21T00:39:26;25.90;92.10
23231;DHT22;11784;49.818;8.632;2023-08-21T00:41:51;25.90;92.30
23231;DHT22;11784;49.818;8.632;2023-08-21T00:44:17;25.90;92.40
23231;DHT22;11784;49.818;8.632;2023-08-21T00:46:42;25.90;92.40
23231;DHT22;11784;49.818;8.632;2023-08-21T00:49:08;25.90;92.10
23231;DHT22;11784;49.818;8.632;2023-08-21T00:51:34;25.90;92.20
23231;DHT22;11784;49.818;8.632;2023-08-21T00:54:00;25.90;92.30
23231;DHT22;11784;49.818;8.632;2023-08-21T00:56:25;25.90;92.30
23231;DHT22;11784;49.818;8.632;2023-08-21T00:58:51;25.90;92.20
23231;DHT22;11784;49.818;8.632;2023-08-21T01:01:17;25.90;92.30
23231;DHT22;11784;49.818;8.632;2023-08-21T01:03:44;25.90;92.20
23231;DHT22;11784;49.818;8.632;2023-08-21T01:06:10;25.90;92.20
23231;DHT22;11784;49.818;8.632;2023-08-21T01:08:56;25.90;92.10
23231;DHT22;11784;49.818;8.632;2023-08-21T01:14:22;25.90;91.80
23231;DHT22;11784;49.818;8.632;2023-08-21T01:16:53;25.90;92.10
23231;DHT22;11784;49.818;8.632;2023-08-21T01:19:44;25.80;92.20
23231;DHT22;11784;49.818;8.632;2023-08-21T01:22:11;25.80;92.30
23231;DHT22;11784;49.818;8.632;2023-08-21T01:24:37;25.80;92.40
23231;DHT22;11784;49.818;8.632;2023-08-21T01:27:02;25.80;92.50
23231;DHT22;11784;49.818;8.632;2023-08-21T01:29:28;25.80;92.50
23231;DHT22;11784;49.818;8.632;2023-08-21T01:32:14;25.80;92.60
23231;DHT22;11784;49.818;8.632;2023-08-21T01:34:43;25.70;92.50
23231;DHT22;11784;49.818;8.632;2023-08-21T01:37:09;25.70;92.50
23231;DHT22;11784;49.818;8.632;2023-08-21T01:39:35;25.70;92.60
23231;DHT22;11784;49.818;8.632;2023-08-21T01:42:01;25.70;92.60
23231;DHT22;11784;49.818;8.632;2023-08-21T01:44:26;25.70;92.60
23231;DHT22;11784;49.818;8.632;2023-08-21T01:46:53;25.70;92.50
23231;DHT22;11784;49.818;8.632;2023-08-21T01:49:19;25.70;92.50
23231;DHT22;11784;49.818;8.632;2023-08-21T01:51:45;25.70;92.40
23231;DHT22;11784;49.818;8.632;2023-08-21T01:54:10;25.70;92.60
23231;DHT22;11784;49.818;8.632;2023-08-21T01:56:36;25.70;92.60
23231;DHT22;11784;49.818;8.632;2023-08-21T01:59:02;25.70;92.70
23231;DHT22;11784;49.818;8.632;2023-08-21T02:01:27;25.70;92.70
23231;DHT22;11784;49.818;8.632;2023-08-21T02:03:53;25.70;92.80
23231;DHT22;11784;49.818;8.632;2023-08-21T02:06:18;25.70;92.70
23231;DHT22;11784;49.818;8.632;2023-08-21T02:08:44;25.70;92.70
23231;DHT22;11784;49.818;8.632;2023-08-21T02:11:09;25.60;92.80
23231;DHT22;11784;49.818;8.632;2023-08-21T02:13:35;25.60;92.80
23231;DHT22;11784;49.818;8.632;2023-08-21T02:16:00;25.60;92.90
23231;DHT22;11784;49.818;8.632;2023-08-21T02:18:26;25.60;92.80
23231;DHT22;11784;49.818;8.632;2023-08-21T02:20:51;25.60;92.90
23231;DHT22;11784;49.818;8.632;2023-08-21T02:23:17;25.60;92.80
23231;DHT22;11784;49.818;8.632;2023-08-21T02:25:42;25.60;92.80
23231;DHT22;11784;49.818;8.632;2023-08-21T02:28:08;25.60;92.80
23231;DHT22;11784;49.818;8.632;2023-08-21T02:30:33;25.60;92.80
23231;DHT22;11784;49.818;8.632;2023-08-21T02:32:59;25.50;92.80
23231;DHT22;11784;49.818;8.632;2023-08-21T02:35:24;25.50;92.90
23231;DHT22;11784;49.818;8.632;2023-08-21T02:37:50;25.50;92.90
23231;DHT22;11784;49.818;8.632;2023-08-21T02:40:16;25.40;93.00
23231;DHT22;11784;49.818;8.632;2023-08-21T02:42:41;25.40;93.00
23231;DHT22;11784;49.818;8.632;2023-08-21T02:45:07;25.40;93.10
23231;DHT22;11784;49.818;8.632;2023-08-21T02:47:40;25.40;93.20
23231;DHT22;11784;49.818;8.632;2023-08-21T02:50:08;25.40;93.20
23231;DHT22;11784;49.818;8.632;2023-08-21T02:52:34;25.40;93.30
23231;DHT22;11784;49.818;8.632;2023-08-21T02:55:01;25.40;93.40
23231;DHT22;11784;49.818;8.632;2023-08-21T02:57:27;25.30;93.40
23231;DHT22;11784;49.818;8.632;2023-08-21T02:59:52;25.30;93.40
23231;DHT22;11784;49.818;8.632;2023-08-21T03:02:19;25.30;93.40
23231;DHT22;11784;49.818;8.632;2023-08-21T03:04:44;25.30;93.50
23231;DHT22;11784;49.818;8.632;2023-08-21T03:07:10;25.20;93.60
23231;DHT22;11784;49.818;8.632;2023-08-21T03:09:39;25.20;93.60
23231;DHT22;11784;49.818;8.632;2023-08-21T03:12:06;25.20;93.70
23231;DHT22;11784;49.818;8.632;2023-08-21T03:14:31;25.20;93.70
23231;DHT22;11784;49.818;8.632;2023-08-21T03:16:57;25.20;93.80
23231;DHT22;11784;49.818;8.632;2023-08-21T03:19:23;25.20;93.90
23231;DHT22;11784;49.818;8.632;2023-08-21T03:21:48;25.20;94.00
23231;DHT22;11784;49.818;8.632;2023-08-21T03:24:14;25.20;94.00
23231;DHT22;11784;49.818;8.632;2023-08-21T03:26:40;25.20;94.00
23231;DHT22;11784;49.818;8.632;2023-08-21T03:29:05;25.20;94.10
23231;DHT22;11784;49.818;8.632;2023-08-21T03:31:31;25.10;94.20
23231;DHT22;11784;49.818;8.632;2023-08-21T03:33:56;25.10;94.20
23231;DHT22;11784;49.818;8.632;2023-08-21T03:36:23;25.10;94.20
23231;DHT22;11784;49.818;8.632;2023-08-21T03:38:59;25.10;94.10
23231;DHT22;11784;49.818;8.632;2023-08-21T03:41:25;25.10;94.20
23231;DHT22;11784;49.818;8.632;2023-08-21T03:43:51;25.10;94.20
23231;DHT22;11784;49.818;8.632;2023-08-21T03:46:16;25.10;94.20
23231;DHT22;11784;49.818;8.632;2023-08-21T03:48:42;25.10;94.10
23231;DHT22;11784;49.818;8.632;2023-08-21T03:51:07;25.10;94.20
23231;DHT22;11784;49.818;8.632;2023-08-21T03:53:33;25.10;94.20
23231;DHT22;11784;49.818;8.632;2023-08-21T03:55:58;25.10;94.10
23231;DHT22;11784;49.818;8.632;2023-08-21T03:58:24;25.10;94.20
23231;DHT22;11784;49.818;8.632;2023-08-21T04:00:51;25.10;94.20
23231;DHT22;11784;49.818;8.632;2023-08-21T04:03:16;25.00;94.10
23231;DHT22;11784;49.818;8.632;2023-08-21T04:05:42;25.10;94.10
23231;DHT22;11784;49.818;8.632;2023-08-21T04:08:08;25.00;94.10
23231;DHT22;11784;49.818;8.632;2023-08-21T04:10:33;25.10;94.10
23231;DHT22;11784;49.818;8.632;2023-08-21T04:12:59;25.10;94.20
23231;DHT22;11784;49.818;8.632;2023-08-21T04:15:25;25.10;94.10
23231;DHT22;11784;49.818;8.632;2023-08-21T04:17:50;25.00;94.10
23231;DHT22;11784;49.818;8.632;2023-08-21T04:20:16;25.00;94.10
23231;DHT22;11784;49.818;8.632;2023-08-21T04:22:41;25.00;94.20
23231;DHT22;11784;49.818;8.632;2023-08-21T04:25:07;25.00;94.20
23231;DHT22;11784;49.818;8.632;2023-08-21T04:27:33;25.00;94.10
23231;DHT22;11784;49.818;8.632;2023-08-21T04:29:58;25.00;94.10
23231;DHT22;11784;49.818;8.632;2023-08-21T04:32:24;25.00;94.10
23231;DHT22;11784;49.818;8.632;2023-08-21T04:34:50;25.00;94.20
23231;DHT22;11784;49.818;8.632;2023-08-21T04:37:15;25.00;94.20
23231;DHT22;11784;49.818;8.632;2023-08-21T04:39:41;25.00;94.20
23231;DHT22;11784;49.818;8.632;2023-08-21T04:42:06;24.90;94.00
23231;DHT22;11784;49.818;8.632;2023-08-21T04:44:32;25.00;94.20
23231;DHT22;11784;49.818;8.632;2023-08-21T04:46:57;25.00;94.20
23231;DHT22;11784;49.818;8.632;2023-08-21T04:49:23;24.90;94.20
23231;DHT22;11784;49.818;8.632;2023-08-21T04:51:48;24.90;94.10
23231;DHT22;11784;49.818;8.632;2023-08-21T04:54:14;24.90;94.20
23231;DHT22;11784;49.818;8.632;2023-08-21T04:56:39;24.90;94.10
23231;DHT22;11784;49.818;8.632;2023-08-21T04:59:05;24.90;94.20
23231;DHT22;11784;49.818;8.632;2023-08-21T05:01:30;24.90;94.10
23231;DHT22;11784;49.818;8.632;2023-08-21T05:03:55;24.90;94.10
23231;DHT22;11784;49.818;8.632;2023-08-21T05:06:21;24.90;94.20
23231;DHT22;11784;49.818;8.632;2023-08-21T05:08:46;24.80;94.20
23231;DHT22;11784;49.818;8.632;2023-08-21T05:11:12;24.90;94.10
23231;DHT22;11784;49.818;8.632;2023-08-21T05:13:37;24.90;94.10
23231;DHT22;11784;49.818;8.632;2023-08-21T05:16:03;24.90;94.10
23231;DHT22;11784;49.818;8.632;2023-08-21T05:18:28;24.90;94.10
23231;DHT22;11784;49.818;8.632;2023-08-21T05:20:55;24.90;94.10
23231;DHT22;11784;49.818;8.632;2023-08-21T05:23:21;24.90;94.10
23231;DHT22;11784;49.818;8.632;2023-08-21T05:25:48;24.90;94.20
23231;DHT22;11784;49.818;8.632;2023-08-21T05:28:14;24.90;94.10
23231;DHT22;11784;49.818;8.632;2023-08-21T05:30:39;24.90;94.10
23231;DHT22;11784;49.818;8.632;2023-08-21T05:33:05;25.00;94.10
23231;DHT22;11784;49.818;8.632;2023-08-21T05:35:34;25.00;94.00
23231;DHT22;11784;49.818;8.632;2023-08-21T05:38:02;25.00;94.00
23231;DHT22;11784;49.818;8.632;2023-08-21T05:40:27;25.00;93.90
23231;DHT22;11784;49.818;8.632;2023-08-21T05:42:53;25.00;93.80
23231;DHT22;11784;49.818;8.632;2023-08-21T05:45:18;25.00;93.90
23231;DHT22;11784;49.818;8.632;2023-08-21T05:47:44;25.00;93.80
23231;DHT22;11784;49.818;8.632;2023-08-21T05:50:09;25.10;93.90
23231;DHT22;11784;49.818;8.632;2023-08-21T05:52:35;25.10;93.90
23231;DHT22;11784;49.818;8.632;2023-08-21T05:55:00;25.10;93.70
23231;DHT22;11784;49.818;8.632;2023-08-21T05:57:26;25.10;93.60
23231;DHT22;11784;49.818;8.632;2023-08-21T05:59:51;25.20;93.60
23231;DHT22;11784;49.818;8.632;2023-08-21T06:02:17;25.20;93.50
23231;DHT22;11784;49.818;8.632;2023-08-21T06:04:43;25.20;93.30
23231;DHT22;11784;49.818;8.632;2023-08-21T06:07:09;25.20;93.30
23231;DHT22;11784;49.818;8.632;2023-08-21T06:09:35;25.20;93.20
23231;DHT22;11784;49.818;8.632;2023-08-21T06:12:04;25.20;93.10
23231;DHT22;11784;49.818;8.632;2023-08-21T06:14:30;25.20;93.30
23231;DHT22;11784;49.818;8.632;2023-08-21T06:17:00;25.30;93.10
23231;DHT22;11784;49.818;8.632;2023-08-21T06:19:27;25.30;93.10
23231;DHT22;11784;49.818;8.632;2023-08-21T06:21:52;25.30;93.10
23231;DHT22;11784;49.818;8.632;2023-08-21T06:24:18;25.40;93.30
23231;DHT22;11784;49.818;8.632;2023-08-21T06:26:43;25.40;93.10
23231;DHT22;11784;49.818;8.632;2023-08-21T06:29:09;25.40;93.00
23231;DHT22;11784;49.818;8.632;2023-08-21T06:31:34;25.40;92.90
23231;DHT22;11784;49.818;8.632;2023-08-21T06:34:00;25.50;92.90
23231;DHT22;11784;49.818;8.632;2023-08-21T06:36:25;25.50;92.80
23231;DHT22;11784;49.818;8.632;2023-08-21T06:38:51;25.50;92.60
23231;DHT22;11784;49.818;8.632;2023-08-21T06:41:16;25.50;92.60
23231;DHT22;11784;49.818;8.632;2023-08-21T06:43:42;25.60;92.80
23231;DHT22;11784;49.818;8.632;2023-08-21T06:46:07;25.60;92.80
23231;DHT22;11784;49.818;8.632;2023-08-21T06:48:37;25.60;92.60
23231;DHT22;11784;49.818;8.632;2023-08-21T06:51:03;25.70;92.60
23231;DHT22;11784;49.818;8.632;2023-08-21T06:53:28;25.70;92.70
23231;DHT22;11784;49.818;8.632;2023-08-21T06:55:54;25.70;92.70
23231;DHT22;11784;49.818;8.632;2023-08-21T06:58:20;25.70;92.50
23231;DHT22;11784;49.818;8.632;2023-08-21T07:00:46;25.80;92.70
23231;DHT22;11784;49.818;8.632;2023-08-21T07:03:11;25.80;92.60
23231;DHT22;11784;49.818;8.632;2023-08-21T07:05:40;25.90;92.60
23231;DHT22;11784;49.818;8.632;2023-08-21T07:08:06;25.90;92.50
23231;DHT22;11784;49.818;8.632;2023-08-21T07:10:38;26.00;92.30
23231;DHT22;11784;49.818;8.632;2023-08-21T07:13:04;26.00;92.30
23231;DHT22;11784;49.818;8.632;2023-08-21T07:15:29;26.00;92.20
23231;DHT22;11784;49.818;8.632;2023-08-21T07:17:55;26.10;92.30
23231;DHT22;11784;49.818;8.632;2023-08-21T07:20:21;26.10;92.10
23231;DHT22;11784;49.818;8.632;2023-08-21T07:22:47;26.20;92.10
23231;DHT22;11784;49.818;8.632;2023-08-21T07:25:12;26.20;92.20
23231;DHT22;11784;49.818;8.632;2023-08-21T07:27:38;26.20;92.00
23231;DHT22;11784;49.818;8.632;2023-08-21T07:30:04;26.30;92.00
23231;DHT22;11784;49.818;8.632;2023-08-21T07:32:30;26.30;92.10
23231;DHT22;11784;49.818;8.632;2023-08-21T07:34:55;26.40;92.20
23231;DHT22;11784;49.818;8.632;2023-08-21T07:37:21;26.40;91.90
23231;DHT22;11784;49.818;8.632;2023-08-21T07:39:46;26.40;92.00
23231;DHT22;11784;49.818;8.632;2023-08-21T07:42:12;26.50;92.20
23231;DHT22;11784;49.818;8.632;2023-08-21T07:44:39;26.50;92.10
23231;DHT22;11784;49.818;8.632;2023-08-21T07:47:04;26.50;92.00
23231;DHT22;11784;49.818;8.632;2023-08-21T07:49:31;26.60;91.80
23231;DHT22;11784;49.818;8.632;2023-08-21T07:51:56;26.60;91.70
23231;DHT22;11784;49.818;8.632;2023-08-21T07:54:22;26.70;91.70
23231;DHT22;11784;49.818;8.632;2023-08-21T07:56:47;26.70;91.70
23231;DHT22;11784;49.818;8.632;2023-08-21T07:59:13;26.80;91.80
23231;DHT22;11784;49.818;8.632;2023-08-21T08:01:39;26.80;91.70
23231;DHT22;11784;49.818;8.632;2023-08-21T08:04:04;26.90;91.80
23231;DHT22;11784;49.818;8.632;2023-08-21T08:06:31;26.90;91.80
23231;DHT22;11784;49.818;8.632;2023-08-21T08:08:57;27.00;91.70
23231;DHT22;11784;49.818;8.632;2023-08-21T08:11:22;27.00;91.50
23231;DHT22;11784;49.818;8.632;2023-08-21T08:13:48;27.10;91.50
23231;DHT22;11784;49.818;8.632;2023-08-21T08:16:14;27.10;91.70
23231;DHT22;11784;49.818;8.632;2023-08-21T08:18:39;27.20;91.60
23231;DHT22;11784;49.818;8.632;2023-08-21T08:21:05;27.20;91.20
23231;DHT22;11784;49.818;8.632;2023-08-21T08:23:30;27.20;91.20
23231;DHT22;11784;49.818;8.632;2023-08-21T08:25:56;27.30;91.00
23231;DHT22;11784;49.818;8.632;2023-08-21T08:28:22;27.30;91.20
23231;DHT22;11784;49.818;8.632;2023-08-21T08:30:47;27.40;91.10
23231;DHT22;11784;49.818;8.632;2023-08-21T08:33:13;27.40;91.00
23231;DHT22;11784;49.818;8.632;2023-08-21T08:35:39;27.50;91.00
23231;DHT22;11784;49.818;8.632;2023-08-21T08:38:06;27.50;90.60
23231;DHT22;11784;49.818;8.632;2023-08-21T08:40:31;27.50;90.50
23231;DHT22;11784;49.818;8.632;2023-08-21T08:42:57;27.60;89.80
23231;DHT22;11784;49.818;8.632;2023-08-21T08:45:29;27.60;90.00
23231;DHT22;11784;49.818;8.632;2023-08-21T08:48:00;27.70;90.00
23231;DHT22;11784;49.818;8.632;2023-08-21T08:50:29;27.70;89.50
23231;DHT22;11784;49.818;8.632;2023-08-21T08:52:55;27.80;88.90
23231;DHT22;11784;49.818;8.632;2023-08-21T08:55:22;27.80;88.70
23231;DHT22;11784;49.818;8.632;2023-08-21T08:57:47;27.90;88.30
23231;DHT22;11784;49.818;8.632;2023-08-21T09:00:13;27.90;86.40
23231;DHT22;11784;49.818;8.632;2023-08-21T09:02:39;27.90;85.10
23231;DHT22;11784;49.818;8.632;2023-08-21T09:05:05;28.00;87.30
23231;DHT22;11784;49.818;8.632;2023-08-21T09:07:32;28.00;86.00
23231;DHT22;11784;49.818;8.632;2023-08-21T09:09:57;28.00;86.00
23231;DHT22;11784;49.818;8.632;2023-08-21T09:12:23;28.10;86.30
23231;DHT22;11784;49.818;8.632;2023-08-21T09:14:48;28.10;86.00
23231;DHT22;11784;49.818;8.632;2023-08-21T09:17:15;28.20;86.30
23231;DHT22;11784;49.818;8.632;2023-08-21T09:19:40;28.20;86.00
23231;DHT22;11784;49.818;8.632;2023-08-21T09:22:11;28.20;87.00
23231;DHT22;11784;49.818;8.632;2023-08-21T09:24:38;28.30;85.50
23231;DHT22;11784;49.818;8.632;2023-08-21T09:27:05;28.40;85.10
23231;DHT22;11784;49.818;8.632;2023-08-21T09:29:39;28.40;85.30
23231;DHT22;11784;49.818;8.632;2023-08-21T09:32:06;28.50;86.80
23231;DHT22;11784;49.818;8.632;2023-08-21T09:34:35;28.50;87.20
23231;DHT22;11784;49.818;8.632;2023-08-21T09:37:08;28.60;85.50
23231;DHT22;11784;49.818;8.632;2023-08-21T09:39:35;28.60;84.80
23231;DHT22;11784;49.818;8.632;2023-08-21T09:42:07;28.60;84.70
23231;DHT22;11784;49.818;8.632;2023-08-21T09:44:39;28.70;85.10
23231;DHT22;11784;49.818;8.632;2023-08-21T09:47:09;28.70;84.90
23231;DHT22;11784;49.818;8.632;2023-08-21T09:49:35;28.70;84.60
23231;DHT22;11784;49.818;8.632;2023-08-21T09:52:04;28.70;84.20
23231;DHT22;11784;49.818;8.632;2023-08-21T09:54:31;28.70;84.00
23231;DHT22;11784;49.818;8.632;2023-08-21T09:57:00;28.70;86.20
23231;DHT22;11784;49.818;8.632;2023-08-21T09:59:26;28.80;84.50
23231;DHT22;11784;49.818;8.632;2023-08-21T10:01:52;28.80;85.10
23231;DHT22;11784;49.818;8.632;2023-08-21T10:04:19;28.80;85.20
23231;DHT22;11784;49.818;8.632;2023-08-21T10:06:47;28.90;86.40
23231;DHT22;11784;49.818;8.632;2023-08-21T10:09:14;28.90;84.30
23231;DHT22;11784;49.818;8.632;2023-08-21T10:11:42;28.90;83.30
23231;DHT22;11784;49.818;8.632;2023-08-21T10:14:08;29.00;82.50
23231;DHT22;11784;49.818;8.632;2023-08-21T10:16:34;29.00;82.80
23231;DHT22;11784;49.818;8.632;2023-08-21T10:19:03;29.10;83.00
23231;DHT22;11784;49.818;8.632;2023-08-21T10:21:35;29.10;83.30
23231;DHT22;11784;49.818;8.632;2023-08-21T10:24:01;29.10;82.40
23231;DHT22;11784;49.818;8.632;2023-08-21T10:26:27;29.10;81.70
23231;DHT22;11784;49.818;8.632;2023-08-21T10:29:00;29.20;82.70
23231;DHT22;11784;49.818;8.632;2023-08-21T10:31:39;29.20;82.30
23231;DHT22;11784;49.818;8.632;2023-08-21T10:34:06;29.20;82.30
23231;DHT22;11784;49.818;8.632;2023-08-21T10:39:14;29.30;79.80
23231;DHT22;11784;49.818;8.632;2023-08-21T10:41:40;29.30;79.60
23231;DHT22;11784;49.818;8.632;2023-08-21T10:44:06;29.30;80.00
23231;DHT22;11784;49.818;8.632;2023-08-21T10:46:51;29.30;80.40
23231;DHT22;11784;49.818;8.632;2023-08-21T10:49:17;29.30;78.20
23231;DHT22;11784;49.818;8.632;2023-08-21T10:51:43;29.40;77.60
23231;DHT22;11784;49.818;8.632;2023-08-21T10:54:13;29.40;75.60
23231;DHT22;11784;49.818;8.632;2023-08-21T10:56:39;29.50;76.70
23231;DHT22;11784;49.818;8.632;2023-08-21T10:59:04;29.50;76.90
23231;DHT22;11784;49.818;8.632;2023-08-21T11:01:44;29.60;75.80
23231;DHT22;11784;49.818;8.632;2023-08-21T11:04:11;29.60;75.70
23231;DHT22;11784;49.818;8.632;2023-08-21T11:06:37;29.60;75.40
23231;DHT22;11784;49.818;8.632;2023-08-21T11:09:03;29.70;75.90
23231;DHT22;11784;49.818;8.632;2023-08-21T11:11:29;29.70;72.30
23231;DHT22;11784;49.818;8.632;2023-08-21T11:13:54;29.70;71.90
23231;DHT22;11784;49.818;8.632;2023-08-21T11:16:20;29.80;70.00
23231;DHT22;11784;49.818;8.632;2023-08-21T11:18:45;29.80;69.20
23231;DHT22;11784;49.818;8.632;2023-08-21T11:21:11;29.80;70.10
23231;DHT22;11784;49.818;8.632;2023-08-21T11:23:41;29.80;68.00
23231;DHT22;11784;49.818;8.632;2023-08-21T11:26:10;29.80;69.00
23231;DHT22;11784;49.818;8.632;2023-08-21T11:28:36;29.90;69.20
23231;DHT22;11784;49.818;8.632;2023-08-21T11:31:04;29.90;68.20
23231;DHT22;11784;49.818;8.632;2023-08-21T11:33:30;30.00;67.90
23231;DHT22;11784;49.818;8.632;2023-08-21T11:35:56;30.00;65.80
23231;DHT22;11784;49.818;8.632;2023-08-21T11:38:25;30.10;66.90
23231;DHT22;11784;49.818;8.632;2023-08-21T11:40:56;30.10;65.50
23231;DHT22;11784;49.818;8.632;2023-08-21T11:43:33;30.10;66.30
23231;DHT22;11784;49.818;8.632;2023-08-21T11:46:00;30.10;65.00
23231;DHT22;11784;49.818;8.632;2023-08-21T11:48:25;30.20;63.90
23231;DHT22;11784;49.818;8.632;2023-08-21T11:50:52;30.20;63.80
23231;DHT22;11784;49.818;8.632;2023-08-21T11:53:39;30.20;63.00
23231;DHT22;11784;49.818;8.632;2023-08-21T11:56:13;30.20;61.90
23231;DHT22;11784;49.818;8.632;2023-08-21T11:58:40;30.20;60.80
23231;DHT22;11784;49.818;8.632;2023-08-21T12:01:06;30.20;59.50
23231;DHT22;11784;49.818;8.632;2023-08-21T12:03:39;30.30;63.30
23231;DHT22;11784;49.818;8.632;2023-08-21T12:06:09;30.30;59.50
23231;DHT22;11784;49.818;8.632;2023-08-21T12:08:37;30.30;59.70
23231;DHT22;11784;49.818;8.632;2023-08-21T12:11:02;30.30;59.50
23231;DHT22;11784;49.818;8.632;2023-08-21T12:13:29;30.40;59.80
23231;DHT22;11784;49.818;8.632;2023-08-21T12:15:55;30.50;59.60
23231;DHT22;11784;49.818;8.632;2023-08-21T12:18:20;30.50;58.70
23231;DHT22;11784;49.818;8.632;2023-08-21T12:20:46;30.60;59.00
23231;DHT22;11784;49.818;8.632;2023-08-21T12:23:11;30.70;58.30
23231;DHT22;11784;49.818;8.632;2023-08-21T12:25:37;30.70;55.60
23231;DHT22;11784;49.818;8.632;2023-08-21T12:28:03;30.70;55.60
23231;DHT22;11784;49.818;8.632;2023-08-21T12:30:28;30.80;56.80
23231;DHT22;11784;49.818;8.632;2023-08-21T12:32:54;30.80;56.50
23231;DHT22;11784;49.818;8.632;2023-08-21T12:35:19;30.90;56.50
23231;DHT22;11784;49.818;8.632;2023-08-21T12:37:45;30.90;54.90
23231;DHT22;11784;49.818;8.632;2023-08-21T12:40:10;31.00;53.70
23231;DHT22;11784;49.818;8.632;2023-08-21T12:42:36;31.00;54.20
23231;DHT22;11784;49.818;8.632;2023-08-21T12:45:02;31.00;53.80
23231;DHT22;11784;49.818;8.632;2023-08-21T12:47:27;31.10;51.60
23231;DHT22;11784;49.818;8.632;2023-08-21T12:49:53;31.00;51.60
23231;DHT22;11784;49.818;8.632;2023-08-21T12:52:19;31.10;53.20
23231;DHT22;11784;49.818;8.632;2023-08-21T12:54:44;31.10;51.40
23231;DHT22;11784;49.818;8.632;2023-08-21T12:57:10;31.20;53.50
23231;DHT22;11784;49.818;8.632;2023-08-21T12:59:37;31.20;53.20
23231;DHT22;11784;49.818;8.632;2023-08-21T13:02:03;31.30;53.20
23231;DHT22;11784;49.818;8.632;2023-08-21T13:04:29;31.40;52.40
23231;DHT22;11784;49.818;8.632;2023-08-21T13:06:54;31.40;51.90
23231;DHT22;11784;49.818;8.632;2023-08-21T13:09:20;31.50;51.00
23231;DHT22;11784;49.818;8.632;2023-08-21T13:11:45;31.60;52.10
23231;DHT22;11784;49.818;8.632;2023-08-21T13:14:11;31.70;51.80
23231;DHT22;11784;49.818;8.632;2023-08-21T13:16:36;31.90;54.00
23231;DHT22;11784;49.818;8.632;2023-08-21T13:19:02;32.10;52.20
23231;DHT22;11784;49.818;8.632;2023-08-21T13:21:27;32.40;51.10
23231;DHT22;11784;49.818;8.632;2023-08-21T13:23:53;33.00;50.20
23231;DHT22;11784;49.818;8.632;2023-08-21T13:26:19;33.70;47.90
23231;DHT22;11784;49.818;8.632;2023-08-21T13:28:45;34.60;45.80
23231;DHT22;11784;49.818;8.632;2023-08-21T13:31:10;35.50;44.10
23231;DHT22;11784;49.818;8.632;2023-08-21T13:33:50;36.30;45.80
23231;DHT22;11784;49.818;8.632;2023-08-21T13:36:16;37.20;42.10
23231;DHT22;11784;49.818;8.632;2023-08-21T13:38:42;38.20;42.10
23231;DHT22;11784;49.818;8.632;2023-08-21T13:41:08;39.00;40.00
23231;DHT22;11784;49.818;8.632;2023-08-21T13:43:34;39.70;37.10
23231;DHT22;11784;49.818;8.632;2023-08-21T13:46:01;40.40;36.50
23231;DHT22;11784;49.818;8.632;2023-08-21T13:48:26;40.90;35.50
23231;DHT22;11784;49.818;8.632;2023-08-21T13:50:52;41.50;35.50
23231;DHT22;11784;49.818;8.632;2023-08-21T13:53:17;42.10;35.30
23231;DHT22;11784;49.818;8.632;2023-08-21T13:55:43;42.80;32.50
23231;DHT22;11784;49.818;8.632;2023-08-21T13:58:08;43.40;30.40
23231;DHT22;11784;49.818;8.632;2023-08-21T14:00:34;43.90;29.50
23231;DHT22;11784;49.818;8.632;2023-08-21T14:03:00;44.40;29.00
23231;DHT22;11784;49.818;8.632;2023-08-21T14:05:25;44.70;28.80
23231;DHT22;11784;49.818;8.632;2023-08-21T14:07:52;45.10;28.10
23231;DHT22;11784;49.818;8.632;2023-08-21T14:10:18;45.40;28.30
23231;DHT22;11784;49.818;8.632;2023-08-21T14:12:43;45.70;28.30
23231;DHT22;11784;49.818;8.632;2023-08-21T14:15:10;46.10;28.10
23231;DHT22;11784;49.818;8.632;2023-08-21T14:17:35;46.50;27.10
23231;DHT22;11784;49.818;8.632;2023-08-21T14:20:02;46.70;27.40
23231;DHT22;11784;49.818;8.632;2023-08-21T14:22:28;46.80;26.10
23231;DHT22;11784;49.818;8.632;2023-08-21T14:24:53;46.90;27.20
23231;DHT22;11784;49.818;8.632;2023-08-21T14:27:19;46.60;26.20
23231;DHT22;11784;49.818;8.632;2023-08-21T14:29:44;46.10;27.20
23231;DHT22;11784;49.818;8.632;2023-08-21T14:32:11;45.70;27.00
23231;DHT22;11784;49.818;8.632;2023-08-21T14:34:36;45.30;26.90
23231;DHT22;11784;49.818;8.632;2023-08-21T14:37:02;45.00;28.00
23231;DHT22;11784;49.818;8.632;2023-08-21T14:39:29;44.90;28.30
23231;DHT22;11784;49.818;8.632;2023-08-21T14:41:55;44.80;28.20
23231;DHT22;11784;49.818;8.632;2023-08-21T14:44:21;44.50;28.50
23231;DHT22;11784;49.818;8.632;2023-08-21T14:46:47;43.90;28.30
23231;DHT22;11784;49.818;8.632;2023-08-21T14:49:13;43.00;29.10
23231;DHT22;11784;49.818;8.632;2023-08-21T14:51:39;42.00;30.50
23231;DHT22;11784;49.818;8.632;2023-08-21T14:54:04;41.00;31.20
23231;DHT22;11784;49.818;8.632;2023-08-21T14:56:30;40.10;32.60
23231;DHT22;11784;49.818;8.632;2023-08-21T14:58:55;39.20;35.00
23231;DHT22;11784;49.818;8.632;2023-08-21T15:01:21;38.50;34.70
23231;DHT22;11784;49.818;8.632;2023-08-21T15:03:46;37.90;36.20
23231;DHT22;11784;49.818;8.632;2023-08-21T15:06:12;37.30;37.20
23231;DHT22;11784;49.818;8.632;2023-08-21T15:08:39;36.80;38.10
23231;DHT22;11784;49.818;8.632;2023-08-21T15:11:05;36.30;39.10
23231;DHT22;11784;49.818;8.632;2023-08-21T15:13:31;35.90;40.60
23231;DHT22;11784;49.818;8.632;2023-08-21T15:15:56;35.60;41.40
23231;DHT22;11784;49.818;8.632;2023-08-21T15:18:21;35.30;43.00
23231;DHT22;11784;49.818;8.632;2023-08-21T15:20:48;35.10;44.10
23231;DHT22;11784;49.818;8.632;2023-08-21T15:23:13;34.90;42.90
23231;DHT22;11784;49.818;8.632;2023-08-21T15:25:39;34.70;43.40
23231;DHT22;11784;49.818;8.632;2023-08-21T15:28:05;34.50;42.70
23231;DHT22;11784;49.818;8.632;2023-08-21T15:30:32;34.50;43.70